KHUM/HUM METAR and TAF weather

Enter ICAO airport designator
Station Type Date Time Source
KHUM METAR 2019/02/20 07:55 UTC NOAA

KHUM 200755Z AUTO 17007KT 5SM BR OVC004 21/21 A2990 RMK AO2 T02080205


Station Type Date Time Source
KHUM Decoded METAR 2019/02/20 07:55 UTC NOAA

Houma-Terrebonne, LA, United States (KHUM) 29-34N 090-40W
Feb 20, 2019 - 02:55 AM EST / 2019.02.20 0755 UTC
Wind: from the S (170 degrees) at 8 MPH (7 KT):0
Visibility: 5 mile(s):0
Sky conditions: overcast
Weather: mist
Temperature: 69.4 F (20.8 C)
Dew Point: 68.9 F (20.5 C)
Relative Humidity: 98%
Pressure (altimeter): 29.9 in. Hg (1012 hPa)
ob: KHUM 200755Z AUTO 17007KT 5SM BR OVC004 21/21 A2990 RMK AO2 T02080205
cycle: 8

Station Type Date Time Source
KHUM TAF 2019/02/20 08:06 UTC NOAA

TAF
AMD KHUM 200805Z 2008/2106 17012KT 5SM BR VCSH OVC004
FM201500 20012KT 6SM -SHRA VCTS OVC009CB
FM210000 31005KT 6SM BR VCSH OVC010


Example: see airport list